createdAt,value
2024-02-13T00:00:27.858Z,100218.53
2024-02-13T00:02:56.023Z,100213.69
2024-02-13T00:05:23.877Z,100221.47
2024-02-13T00:07:52.252Z,100223.00
2024-02-13T00:10:22.542Z,100221.97
2024-02-13T00:12:52.906Z,100224.22
2024-02-13T00:15:21.919Z,100231.81
2024-02-13T00:17:52.358Z,100231.13
2024-02-13T00:20:20.478Z,100235.16
2024-02-13T00:22:48.918Z,100243.69
2024-02-13T00:25:17.717Z,100252.88
2024-02-13T00:27:48.030Z,100245.47
2024-02-13T00:30:16.301Z,100248.31
2024-02-13T00:32:44.105Z,100243.25
2024-02-13T00:35:11.888Z,100247.09
2024-02-13T00:37:40.571Z,100254.75
2024-02-13T00:40:11.820Z,100247.94
2024-02-13T00:42:40.408Z,100242.44
2024-02-13T00:45:13.086Z,100249.50
2024-02-13T00:47:42.555Z,100245.72
2024-02-13T00:50:10.986Z,100250.16
2024-02-13T00:52:41.264Z,100262.22
2024-02-13T00:55:09.767Z,100271.97
2024-02-13T00:57:37.935Z,100270.81
2024-02-13T01:00:10.611Z,100280.34
2024-02-13T01:02:40.586Z,100289.78
2024-02-13T01:05:09.088Z,100293.53
2024-02-13T01:07:37.920Z,100289.97
2024-02-13T01:10:07.637Z,100306.09
2024-02-13T01:12:35.417Z,100324.50
2024-02-13T01:15:03.806Z,100323.81
2024-02-13T01:17:32.012Z,100320.34
2024-02-13T01:20:01.236Z,100312.69
2024-02-13T01:22:29.266Z,100315.91
2024-02-13T01:24:57.126Z,100328.88
2024-02-13T01:27:25.126Z,100336.69
2024-02-13T01:29:53.203Z,100345.03
2024-02-13T01:32:21.132Z,100353.88
2024-02-13T01:34:49.343Z,100350.28
2024-02-13T01:37:18.814Z,100357.38
2024-02-13T01:39:47.065Z,100354.06
2024-02-13T01:42:14.786Z,100361.22
2024-02-13T01:44:42.888Z,100372.59
2024-02-13T01:47:10.711Z,100381.97
2024-02-13T01:49:39.081Z,100384.03
2024-02-13T01:52:08.193Z,100392.94
2024-02-13T01:54:37.627Z,100396.56
2024-02-13T01:57:06.601Z,100401.06
2024-02-13T01:59:39.943Z,100408.59
2024-02-13T02:02:10.149Z,100414.09
2024-02-13T02:04:41.603Z,100405.63
2024-02-13T02:07:10.170Z,100407.91
2024-02-13T02:09:39.306Z,100416.81
2024-02-13T02:12:07.578Z,100415.09
2024-02-13T02:14:35.556Z,100413.00
2024-02-13T02:17:10.749Z,100433.38
2024-02-13T02:19:39.471Z,100427.53
2024-02-13T02:22:08.312Z,100425.31
2024-02-13T02:24:36.871Z,100413.94
2024-02-13T02:27:06.278Z,100432.47
2024-02-13T02:29:34.468Z,100442.59
2024-02-13T02:32:02.265Z,100449.94
2024-02-13T02:34:30.332Z,100450.50
2024-02-13T02:36:58.517Z,100443.75
2024-02-13T02:39:26.454Z,100459.16
2024-02-13T02:41:54.206Z,100459.72
2024-02-13T02:44:23.416Z,100464.53
2024-02-13T02:46:51.478Z,100462.44
2024-02-13T02:49:20.191Z,100469.53
2024-02-13T02:51:48.735Z,100470.31
2024-02-13T02:54:16.736Z,100469.97
2024-02-13T02:56:44.946Z,100475.13
2024-02-13T02:59:13.930Z,100481.34
2024-02-13T03:01:43.460Z,100481.19
2024-02-13T03:04:12.004Z,100491.06
2024-02-13T03:06:42.359Z,100496.00
2024-02-13T03:09:10.293Z,100502.25
2024-02-13T03:11:38.555Z,100502.81
2024-02-13T03:14:06.900Z,100506.69
2024-02-13T03:16:36.090Z,100522.09
2024-02-13T03:19:07.288Z,100516.81
2024-02-13T03:21:36.309Z,100525.25
2024-02-13T03:24:04.626Z,100530.41
2024-02-13T03:26:33.974Z,100532.56
2024-02-13T03:29:03.462Z,100536.09
2024-02-13T03:31:31.520Z,100534.44
2024-02-13T03:33:59.269Z,100540.78
2024-02-13T03:36:28.369Z,100543.16
2024-02-13T03:38:56.398Z,100554.03
2024-02-13T03:41:24.621Z,100556.59
2024-02-13T03:43:52.324Z,100560.38
2024-02-13T03:46:20.135Z,100558.06
2024-02-13T03:48:47.999Z,100567.47
2024-02-13T03:51:15.836Z,100561.19
2024-02-13T03:53:46.552Z,100569.78
2024-02-13T03:56:14.355Z,100576.78
2024-02-13T03:58:42.504Z,100584.34
2024-02-13T04:01:11.034Z,100594.22
2024-02-13T04:03:39.189Z,100594.94
2024-02-13T04:06:09.843Z,100611.06
2024-02-13T04:08:38.071Z,100604.25
2024-02-13T04:11:07.559Z,100615.84
2024-02-13T04:13:35.663Z,100619.56
2024-02-13T04:16:03.430Z,100630.22
2024-02-13T04:18:31.648Z,100636.53
2024-02-13T04:20:59.759Z,100641.03
2024-02-13T04:23:28.722Z,100643.97
2024-02-13T04:25:56.623Z,100656.56
2024-02-13T04:28:26.060Z,100661.72
2024-02-13T04:30:54.131Z,100668.78
2024-02-13T04:33:22.458Z,100666.38
2024-02-13T04:35:50.353Z,100667.78
2024-02-13T04:38:19.273Z,100667.53
2024-02-13T04:40:47.208Z,100669.44
2024-02-13T04:43:14.885Z,100678.56
2024-02-13T04:45:44.315Z,100677.50
2024-02-13T04:48:14.442Z,100674.00
2024-02-13T04:50:42.911Z,100678.13
2024-02-13T04:53:11.075Z,100669.47
2024-02-13T04:55:39.832Z,100672.44
2024-02-13T04:58:09.004Z,100677.16
2024-02-13T05:00:38.704Z,100686.72
2024-02-13T05:03:18.379Z,100682.81
2024-02-13T05:06:03.754Z,100683.88
2024-02-13T05:08:32.172Z,100677.97
2024-02-13T05:10:59.880Z,100675.44
2024-02-13T05:13:28.059Z,100687.97
2024-02-13T05:15:55.756Z,100697.34
2024-02-13T05:18:24.916Z,100696.41
2024-02-13T05:20:53.218Z,100701.16
2024-02-13T05:23:22.197Z,100699.00
2024-02-13T05:25:50.652Z,100690.50
2024-02-13T05:28:18.743Z,100698.69
2024-02-13T05:30:46.518Z,100704.28
2024-02-13T05:33:14.409Z,100706.06
2024-02-13T05:35:46.015Z,100713.81
2024-02-13T05:38:13.993Z,100724.59
2024-02-13T05:40:43.479Z,100722.94
2024-02-13T05:43:12.743Z,100733.72
2024-02-13T05:45:40.569Z,100722.38
2024-02-13T05:48:10.735Z,100725.47
2024-02-13T05:50:39.064Z,100722.75
2024-02-13T05:53:08.506Z,100738.09
2024-02-13T05:55:36.572Z,100723.91
2024-02-13T05:58:04.756Z,100733.59
2024-02-13T06:00:33.956Z,100744.13
2024-02-13T06:03:02.389Z,100744.22
2024-02-13T06:05:31.361Z,100764.69
2024-02-13T06:07:59.228Z,100756.53
2024-02-13T06:10:28.757Z,100761.03
2024-02-13T06:12:57.889Z,100771.91
2024-02-13T06:15:27.157Z,100776.84
2024-02-13T06:17:55.257Z,100776.97
2024-02-13T06:20:23.964Z,100780.63
2024-02-13T06:22:51.672Z,100786.66
2024-02-13T06:25:19.935Z,100781.81
2024-02-13T06:27:49.405Z,100790.91
2024-02-13T06:30:18.608Z,100789.75
2024-02-13T06:32:46.712Z,100791.28
2024-02-13T06:35:15.994Z,100803.31
2024-02-13T06:37:44.863Z,100803.66
2024-02-13T06:40:13.802Z,100807.00
2024-02-13T06:42:41.821Z,100809.34
2024-02-13T06:45:12.098Z,100815.59
2024-02-13T06:47:40.062Z,100824.81
2024-02-13T06:50:13.547Z,100818.66
2024-02-13T06:52:42.777Z,100823.41
2024-02-13T06:55:11.728Z,100814.41
2024-02-13T06:57:39.420Z,100815.16
2024-02-13T07:00:10.826Z,100807.81
2024-02-13T07:02:40.110Z,100820.91
2024-02-13T07:05:09.887Z,100827.19
2024-02-13T07:07:46.151Z,100825.44
2024-02-13T07:10:17.696Z,100832.50
2024-02-13T07:12:45.930Z,100838.66
2024-02-13T07:15:13.865Z,100828.72
2024-02-13T07:17:52.587Z,100832.84
2024-02-13T07:20:27.943Z,100832.16
2024-02-13T07:22:56.370Z,100842.53
2024-02-13T07:25:24.507Z,100845.16
2024-02-13T07:27:53.825Z,100852.13
2024-02-13T07:30:22.983Z,100847.38
2024-02-13T07:32:53.535Z,100840.31
2024-02-13T07:35:22.951Z,100839.59
2024-02-13T07:37:51.046Z,100850.69
2024-02-13T07:40:19.065Z,100842.06
2024-02-13T07:42:47.271Z,100845.38
2024-02-13T07:45:15.049Z,100855.06
2024-02-13T07:47:43.083Z,100853.50
2024-02-13T07:50:16.146Z,100855.75
2024-02-13T07:52:45.160Z,100854.25
2024-02-13T07:55:13.257Z,100859.91
2024-02-13T07:57:41.312Z,100867.69
2024-02-13T08:00:09.960Z,100871.94
2024-02-13T08:02:37.944Z,100885.53
2024-02-13T08:05:06.300Z,100882.94
2024-02-13T08:07:35.861Z,100883.41
2024-02-13T08:10:05.055Z,100896.41
2024-02-13T08:12:33.259Z,100883.78
2024-02-13T08:15:01.941Z,100889.69
2024-02-13T08:17:30.741Z,100884.25
2024-02-13T08:20:00.773Z,100887.78
2024-02-13T08:22:29.143Z,100896.66
2024-02-13T08:25:02.524Z,100899.13
2024-02-13T08:27:31.694Z,100899.72
2024-02-13T08:29:59.484Z,100901.03
2024-02-13T08:32:28.489Z,100901.97
2024-02-13T08:34:58.129Z,100904.44
2024-02-13T08:37:26.356Z,100909.19
2024-02-13T08:39:54.702Z,100904.94
2024-02-13T08:42:23.708Z,100912.38
2024-02-13T08:44:53.055Z,100916.59
2024-02-13T08:47:20.861Z,100919.47
2024-02-13T08:49:48.751Z,100918.59
2024-02-13T08:52:17.044Z,100929.13
2024-02-13T08:54:44.802Z,100930.81
2024-02-13T08:57:15.269Z,100929.59
2024-02-13T08:59:44.210Z,100934.22
2024-02-13T09:02:12.250Z,100938.00
2024-02-13T09:04:40.013Z,100954.66
2024-02-13T09:07:08.236Z,100957.03
2024-02-13T09:09:36.310Z,100962.00
2024-02-13T09:12:04.505Z,100959.50
2024-02-13T09:14:35.269Z,100968.25
2024-02-13T09:17:06.554Z,100964.25
2024-02-13T09:19:34.911Z,100961.88
2024-02-13T09:22:02.616Z,100984.81
2024-02-13T09:24:30.669Z,100980.53
2024-02-13T09:26:58.559Z,100978.41
2024-02-13T09:29:26.479Z,100985.28
2024-02-13T09:31:55.785Z,100988.59
2024-02-13T09:34:24.918Z,100990.13
2024-02-13T09:36:53.104Z,100989.84
2024-02-13T09:39:20.872Z,100994.59
2024-02-13T09:41:48.726Z,101006.66
2024-02-13T09:44:17.611Z,101007.34
2024-02-13T09:46:46.261Z,101017.63
2024-02-13T09:49:15.519Z,101016.72
2024-02-13T09:51:47.921Z,101011.72
2024-02-13T09:54:17.633Z,101017.13
2024-02-13T09:56:46.727Z,101022.09
2024-02-13T09:59:14.896Z,101028.91
2024-02-13T10:01:42.674Z,101025.66
2024-02-13T10:04:10.380Z,101038.31
2024-02-13T10:06:38.974Z,101037.81
2024-02-13T10:09:12.807Z,101049.31
2024-02-13T10:11:43.008Z,101038.50
2024-02-13T10:14:21.095Z,101049.03
2024-02-13T10:16:51.043Z,101050.34
2024-02-13T10:19:21.489Z,101062.66
2024-02-13T10:21:50.749Z,101063.06
2024-02-13T10:24:25.318Z,101060.66
2024-02-13T10:26:53.431Z,101056.22
2024-02-13T10:29:21.914Z,101066.06
2024-02-13T10:31:49.585Z,101069.50
2024-02-13T10:34:17.332Z,101066.31
2024-02-13T10:36:47.142Z,101077.63
2024-02-13T10:39:16.110Z,101074.50
2024-02-13T10:41:46.959Z,101075.75
2024-02-13T10:44:22.500Z,101093.03
2024-02-13T10:46:52.194Z,101083.19
2024-02-13T10:49:28.201Z,101082.69
2024-02-13T10:51:57.139Z,101077.47
2024-02-13T10:54:26.766Z,101092.38
2024-02-13T10:56:58.281Z,101093.03
2024-02-13T10:59:29.821Z,101117.34
2024-02-13T11:02:01.559Z,101107.91
2024-02-13T11:04:30.475Z,101110.31
2024-02-13T11:06:58.389Z,101111.41
2024-02-13T11:09:27.067Z,101113.44
2024-02-13T11:11:56.733Z,101103.28
2024-02-13T11:14:26.431Z,101108.56
2024-02-13T11:16:59.166Z,101099.38
2024-02-13T11:19:39.122Z,101113.53
2024-02-13T11:22:10.440Z,101122.72
2024-02-13T11:24:50.921Z,101116.28
2024-02-13T11:27:29.933Z,101113.63
2024-02-13T11:30:01.151Z,101117.50
2024-02-13T11:32:34.643Z,101107.91
2024-02-13T11:35:07.171Z,101119.25
2024-02-13T11:37:37.196Z,101124.63
2024-02-13T11:40:06.997Z,101127.78
2024-02-13T11:42:37.474Z,101134.69
2024-02-13T11:45:06.881Z,101121.16
2024-02-13T11:47:35.733Z,101129.59
2024-02-13T11:50:06.862Z,101120.25
2024-02-13T11:52:36.014Z,101116.13
2024-02-13T11:55:04.240Z,101120.41
2024-02-13T11:57:31.950Z,101114.66
2024-02-13T12:00:03.009Z,101116.91
2024-02-13T12:02:32.934Z,101120.66
2024-02-13T12:05:01.116Z,101118.63
2024-02-13T12:07:30.063Z,101112.97
2024-02-13T12:09:58.604Z,101115.97
2024-02-13T12:12:27.213Z,101119.72
2024-02-13T12:14:55.765Z,101130.97
2024-02-13T12:17:24.959Z,101122.75
2024-02-13T12:19:57.060Z,101138.22
2024-02-13T12:22:27.243Z,101137.91
2024-02-13T12:24:57.795Z,101132.44
2024-02-13T12:27:25.695Z,101128.31
2024-02-13T12:29:53.510Z,101132.94
2024-02-13T12:32:23.302Z,101132.25
2024-02-13T12:34:55.654Z,101127.66
2024-02-13T12:37:25.738Z,101130.41
2024-02-13T12:39:54.179Z,101128.44
2024-02-13T12:42:22.350Z,101136.75
2024-02-13T12:44:50.621Z,101132.38
2024-02-13T12:47:19.432Z,101135.94
2024-02-13T12:49:48.440Z,101129.06
2024-02-13T12:52:24.016Z,101126.84
2024-02-13T12:54:53.246Z,101124.22
2024-02-13T12:57:22.067Z,101128.56
2024-02-13T12:59:51.879Z,101130.41
2024-02-13T13:02:26.763Z,101127.28
2024-02-13T13:04:54.987Z,101125.53
2024-02-13T13:07:24.487Z,101116.72
2024-02-13T13:09:53.703Z,101121.47
2024-02-13T13:12:21.846Z,101129.56
2024-02-13T13:14:50.071Z,101130.66
2024-02-13T13:17:23.183Z,101127.47
2024-02-13T13:19:51.845Z,101125.59
2024-02-13T13:22:21.172Z,101130.41
2024-02-13T13:24:50.292Z,101134.78
2024-02-13T13:27:20.310Z,101131.16
2024-02-13T13:29:48.409Z,101129.75
2024-02-13T13:32:17.961Z,101125.00
2024-02-13T13:34:46.865Z,101125.38
2024-02-13T13:37:15.090Z,101124.78
2024-02-13T13:39:42.846Z,101127.47
2024-02-13T13:42:12.422Z,101133.31
2024-02-13T13:44:41.513Z,101134.59
2024-02-13T13:47:09.772Z,101126.16
2024-02-13T13:49:38.877Z,101123.47
2024-02-13T13:52:07.939Z,101122.44
2024-02-13T13:54:36.109Z,101138.19
2024-02-13T13:57:03.820Z,101141.19
2024-02-13T13:59:33.590Z,101128.94
2024-02-13T14:02:01.796Z,101144.16
2024-02-13T14:04:30.151Z,101144.78
2024-02-13T14:06:58.316Z,101146.47
2024-02-13T14:09:26.512Z,101144.25
2024-02-13T14:11:54.856Z,101139.16
2024-02-13T14:14:22.980Z,101134.84
2024-02-13T14:16:53.184Z,101142.25
2024-02-13T14:19:21.051Z,101149.91
2024-02-13T14:21:49.595Z,101144.41
2024-02-13T14:24:17.935Z,101151.03
2024-02-13T14:26:46.367Z,101146.19
2024-02-13T14:29:14.736Z,101150.16
2024-02-13T14:31:43.317Z,101146.25
2024-02-13T14:34:12.837Z,101145.06
2024-02-13T14:36:42.849Z,101143.88
2024-02-13T14:39:18.652Z,101137.28
2024-02-13T14:41:55.225Z,101141.09
2024-02-13T14:44:24.076Z,101148.06
2024-02-13T14:46:52.855Z,101150.44
2024-02-13T14:49:22.331Z,101152.22
2024-02-13T14:51:50.751Z,101149.09
2024-02-13T14:54:21.634Z,101155.72
2024-02-13T14:56:51.025Z,101152.38
2024-02-13T14:59:20.628Z,101170.75
2024-02-13T15:01:48.659Z,101154.97
2024-02-13T15:04:17.156Z,101162.16
2024-02-13T15:06:49.738Z,101172.56
2024-02-13T15:09:20.423Z,101167.41
2024-02-13T15:11:48.877Z,101163.59
2024-02-13T15:14:18.096Z,101171.31
2024-02-13T15:16:49.606Z,101170.97
2024-02-13T15:19:18.007Z,101176.97
2024-02-13T15:21:47.373Z,101179.09
2024-02-13T15:24:18.153Z,101174.16
2024-02-13T15:26:46.195Z,101172.00
2024-02-13T15:29:14.914Z,101168.97
2024-02-13T15:31:43.555Z,101165.19
2024-02-13T15:34:11.913Z,101173.38
2024-02-13T15:36:50.055Z,101169.88
2024-02-13T15:39:37.026Z,101170.81
2024-02-13T15:42:22.899Z,101166.94
2024-02-13T15:45:08.881Z,101176.06
2024-02-13T15:47:36.697Z,101172.75
2024-02-13T15:50:08.094Z,101181.28
2024-02-13T15:52:37.060Z,101185.66
2024-02-13T15:55:08.903Z,101189.31
2024-02-13T15:57:38.899Z,101181.94
2024-02-13T16:00:09.220Z,101178.22
2024-02-13T16:02:37.902Z,101177.06
2024-02-13T16:05:06.721Z,101191.28
2024-02-13T16:07:34.489Z,101193.94
2024-02-13T16:10:02.274Z,101194.38
2024-02-13T16:12:31.718Z,101191.63
2024-02-13T16:14:59.587Z,101190.50
2024-02-13T16:17:27.417Z,101188.25
2024-02-13T16:19:56.467Z,101195.75
2024-02-13T16:22:25.150Z,101188.56
2024-02-13T16:24:55.266Z,101190.16
2024-02-13T16:27:23.495Z,101202.06
2024-02-13T16:29:53.086Z,101196.09
2024-02-13T16:32:32.646Z,101192.78
2024-02-13T16:35:07.084Z,101209.97
2024-02-13T16:37:35.681Z,101207.50
2024-02-13T16:40:05.002Z,101208.00
2024-02-13T16:42:33.981Z,101205.50
2024-02-13T16:47:53.875Z,101208.09
2024-02-13T16:50:21.994Z,101207.75
2024-02-13T16:52:50.008Z,101214.75
2024-02-13T16:55:18.709Z,101217.25
2024-02-13T16:57:47.405Z,101213.47
2024-02-13T17:00:17.768Z,101220.56
2024-02-13T17:02:46.886Z,101224.88
2024-02-13T17:05:14.864Z,101232.25
2024-02-13T17:07:43.726Z,101227.31
2024-02-13T17:10:13.439Z,101230.66
2024-02-13T17:12:44.485Z,101230.31
2024-02-13T17:15:15.306Z,101234.44
2024-02-13T17:17:45.792Z,101232.72
2024-02-13T17:20:14.280Z,101253.22
2024-02-13T17:22:44.029Z,101243.78
2024-02-13T17:25:13.079Z,101242.25
2024-02-13T17:27:42.614Z,101246.03
2024-02-13T17:30:13.837Z,101259.41
2024-02-13T17:32:45.413Z,101262.63
2024-02-13T17:35:15.235Z,101261.56
2024-02-13T17:37:43.117Z,101261.09
2024-02-13T17:40:14.545Z,101260.03
2024-02-13T17:42:42.803Z,101264.91
2024-02-13T17:45:11.328Z,101259.91
2024-02-13T17:47:40.032Z,101260.66
2024-02-13T17:50:10.470Z,101261.00
2024-02-13T17:52:40.321Z,101259.81
2024-02-13T17:55:10.380Z,101261.72
2024-02-13T17:57:40.774Z,101260.31
2024-02-13T18:00:11.758Z,101267.53
2024-02-13T18:02:40.471Z,101269.19
2024-02-13T18:05:09.791Z,101257.06
2024-02-13T18:07:39.187Z,101254.47
2024-02-13T18:10:09.398Z,101252.22
2024-02-13T18:12:41.616Z,101265.34
2024-02-13T18:15:11.915Z,101253.28
2024-02-13T18:17:40.477Z,101258.94
2024-02-13T18:20:15.339Z,101253.38
2024-02-13T18:22:46.272Z,101252.56
2024-02-13T18:25:14.542Z,101256.13
2024-02-13T18:27:42.636Z,101253.38
2024-02-13T18:30:11.174Z,101260.28
2024-02-13T18:32:39.448Z,101262.72
2024-02-13T18:35:08.154Z,101253.16
2024-02-13T18:37:35.929Z,101255.97
2024-02-13T18:40:05.854Z,101248.16
2024-02-13T18:42:33.593Z,101254.69
2024-02-13T18:45:02.066Z,101256.44
2024-02-13T18:47:30.471Z,101258.22
2024-02-13T18:49:58.630Z,101258.47
2024-02-13T18:52:28.135Z,101256.19
2024-02-13T18:54:55.976Z,101259.97
2024-02-13T18:57:25.088Z,101254.91
2024-02-13T18:59:52.914Z,101252.03
2024-02-13T19:02:21.400Z,101248.84
2024-02-13T19:04:49.783Z,101258.41
2024-02-13T19:07:17.599Z,101257.66
2024-02-13T19:09:45.895Z,101260.19
2024-02-13T19:12:13.666Z,101253.06
2024-02-13T19:14:44.191Z,101251.53
2024-02-13T19:17:12.019Z,101258.13
2024-02-13T19:19:39.760Z,101260.34
2024-02-13T19:22:07.822Z,101255.88
2024-02-13T19:24:35.956Z,101260.22
2024-02-13T19:27:04.043Z,101252.03
2024-02-13T19:29:31.953Z,101249.31
2024-02-13T19:32:01.393Z,101245.03
2024-02-13T19:34:29.350Z,101247.63
2024-02-13T19:36:57.964Z,101253.28
2024-02-13T19:39:26.095Z,101258.97
2024-02-13T19:41:54.255Z,101264.69
2024-02-13T19:44:23.639Z,101261.97
2024-02-13T19:46:51.382Z,101264.09
2024-02-13T19:49:21.244Z,101255.72
2024-02-13T19:51:49.280Z,101261.09
2024-02-13T19:54:16.992Z,101263.22
2024-02-13T19:56:47.283Z,101267.59
2024-02-13T19:59:17.253Z,101264.50
2024-02-13T20:01:45.240Z,101264.34
2024-02-13T20:04:13.459Z,101266.47
2024-02-13T20:06:43.037Z,101267.59
2024-02-13T20:09:10.882Z,101264.50
2024-02-13T20:11:40.311Z,101267.69
2024-02-13T20:14:08.069Z,101267.53
2024-02-13T20:16:39.000Z,101258.19
2024-02-13T20:19:06.865Z,101266.63
2024-02-13T20:21:37.017Z,101268.59
2024-02-13T20:24:07.155Z,101262.91
2024-02-13T20:26:35.214Z,101258.41
2024-02-13T20:29:03.337Z,101263.22
2024-02-13T20:31:33.557Z,101266.78
2024-02-13T20:34:01.533Z,101267.59
2024-02-13T20:36:30.773Z,101255.53
2024-02-13T20:39:12.905Z,101263.22
2024-02-13T20:41:42.783Z,101257.13
2024-02-13T20:44:10.811Z,101262.22
2024-02-13T20:46:39.107Z,101258.44
2024-02-13T20:49:09.563Z,101260.34
2024-02-13T20:51:37.609Z,101268.34
2024-02-13T20:54:07.117Z,101267.91
2024-02-13T20:56:36.682Z,101262.84
2024-02-13T20:59:04.685Z,101260.66
2024-02-13T21:01:36.539Z,101256.28
2024-02-13T21:04:05.935Z,101263.03
2024-02-13T21:06:33.828Z,101260.56
2024-02-13T21:09:01.982Z,101261.19
2024-02-13T21:11:29.731Z,101269.53
2024-02-13T21:14:00.525Z,101264.72
2024-02-13T21:16:30.603Z,101259.34
2024-02-13T21:18:58.622Z,101258.53
2024-02-13T21:21:44.203Z,101257.66
2024-02-13T21:24:14.009Z,101263.78
2024-02-13T21:26:42.288Z,101258.78
2024-02-13T21:29:11.673Z,101258.41
2024-02-13T21:31:41.049Z,101260.03
2024-02-13T21:34:09.311Z,101262.63
2024-02-13T21:36:37.223Z,101256.38
2024-02-13T21:39:09.366Z,101261.06
2024-02-13T21:41:39.242Z,101257.66
2024-02-13T21:44:07.418Z,101254.56
2024-02-13T21:46:36.482Z,101251.31
2024-02-13T21:49:04.353Z,101261.78
2024-02-13T21:51:32.474Z,101264.56
2024-02-13T21:54:00.802Z,101258.38
2024-02-13T21:56:28.637Z,101256.13
2024-02-13T21:58:57.317Z,101241.09
2024-02-13T22:01:25.293Z,101235.06
2024-02-13T22:03:57.292Z,101235.06
2024-02-13T22:06:27.061Z,101233.59
2024-02-13T22:08:54.940Z,101231.75
2024-02-13T22:11:22.746Z,101240.31
2024-02-13T22:13:51.136Z,101236.78
2024-02-13T22:16:18.838Z,101240.34
2024-02-13T22:18:47.094Z,101240.78
2024-02-13T22:21:16.823Z,101244.38
2024-02-13T22:23:46.342Z,101248.56
2024-02-13T22:26:14.886Z,101242.28
2024-02-13T22:28:43.072Z,101255.19
2024-02-13T22:31:11.148Z,101250.22
2024-02-13T22:33:38.904Z,101256.44
2024-02-13T22:36:08.221Z,101256.44
2024-02-13T22:38:37.380Z,101258.97
2024-02-13T22:41:05.950Z,101249.81
2024-02-13T22:43:34.264Z,101244.97
2024-02-13T22:46:02.013Z,101253.91
2024-02-13T22:48:29.849Z,101261.56
2024-02-13T22:50:57.945Z,101262.00
2024-02-13T22:53:26.220Z,101259.53
2024-02-13T22:55:55.660Z,101251.41
2024-02-13T22:58:23.456Z,101261.66
2024-02-13T23:00:54.870Z,101254.13
2024-02-13T23:03:22.937Z,101258.13
2024-02-13T23:05:55.337Z,101257.50
2024-02-13T23:08:23.484Z,101245.44
2024-02-13T23:10:51.584Z,101249.03
2024-02-13T23:13:21.342Z,101257.94
2024-02-13T23:15:49.634Z,101243.41
2024-02-13T23:18:19.027Z,101240.69
2024-02-13T23:20:47.683Z,101247.16
2024-02-13T23:23:16.989Z,101254.88
2024-02-13T23:25:44.882Z,101257.41
2024-02-13T23:28:14.353Z,101250.59
2024-02-13T23:30:45.496Z,101246.41
2024-02-13T23:33:13.574Z,101237.47
2024-02-13T23:35:43.200Z,101240.19
2024-02-13T23:38:10.957Z,101239.34
2024-02-13T23:40:39.012Z,101236.41
2024-02-13T23:43:08.056Z,101234.13
2024-02-13T23:45:35.964Z,101234.34
2024-02-13T23:48:05.688Z,101236.66
2024-02-13T23:50:33.998Z,101222.31
2024-02-13T23:53:02.060Z,101223.78
2024-02-13T23:55:29.854Z,101220.22
2024-02-13T23:57:57.961Z,101221.69
